Time;durP1;ratioP1;P1;durP2;ratioP2;P2;SDS_P1;SDS_P2;PMS_P1;PMS_P2;Temp;Humidity;BMP_temperature;BMP_pressure;BME280_temperature;BME280_humidity;BME280_pressure;Samples;Min_cycle;Max_cycle;Signal;HPM_P1;HPM_P2
2023/05/07 00:01:00;;;;;;;70.85;37.00;;;;;;;11.91;100.00;101732.91;5134395;27;20031;-77
2023/05/07 00:03:26;;;;;;;62.60;34.28;;;;;;;11.93;100.00;101734.50;5134071;27;20076;-77
2023/05/07 00:05:52;;;;;;;67.38;35.83;;;;;;;11.92;100.00;101737.28;5134065;28;20035;-77
2023/05/07 00:08:18;;;;;;;68.82;34.38;;;;;;;11.91;100.00;101741.78;5132793;28;20114;-79
2023/05/07 00:10:44;;;;;;;72.03;33.85;;;;;;;11.88;100.00;101742.00;5134307;27;20153;-79
2023/05/07 00:13:10;;;;;;;66.65;36.00;;;;;;;11.85;100.00;101746.75;5134028;27;20076;-79
2023/05/07 00:15:35;;;;;;;62.88;34.70;;;;;;;11.79;100.00;101751.63;5134092;27;20040;-79
2023/05/07 00:18:01;;;;;;;62.97;34.75;;;;;;;11.72;100.00;101746.88;5134280;27;20074;-78
2023/05/07 00:20:26;;;;;;;62.65;35.92;;;;;;;11.66;100.00;101737.59;5134606;28;20035;-79
2023/05/07 00:22:52;;;;;;;59.38;33.35;;;;;;;11.62;100.00;101733.47;5134427;27;20455;-79
2023/05/07 00:25:19;;;;;;;68.60;35.13;;;;;;;11.55;100.00;101738.44;5136702;27;20039;-78
2023/05/07 00:27:45;;;;;;;67.60;37.03;;;;;;;11.51;100.00;101737.00;5138018;27;20062;-79
2023/05/07 00:30:11;;;;;;;68.45;36.55;;;;;;;11.50;100.00;101739.81;5137522;27;20471;-80
2023/05/07 00:32:36;;;;;;;71.30;36.97;;;;;;;11.47;100.00;101740.88;5138212;27;20038;-79
2023/05/07 00:35:02;;;;;;;68.28;34.85;;;;;;;11.44;100.00;101730.47;5137589;27;20024;-79
2023/05/07 00:37:28;;;;;;;66.20;34.53;;;;;;;11.43;100.00;101734.94;5136505;27;20387;-77
2023/05/07 00:39:53;;;;;;;70.85;35.42;;;;;;;11.44;100.00;101728.66;5136726;27;20042;-77
2023/05/07 00:42:19;;;;;;;88.18;40.60;;;;;;;11.44;100.00;101728.66;5137746;27;20463;-77
2023/05/07 00:44:44;;;;;;;72.57;36.97;;;;;;;11.49;100.00;101736.25;5136740;27;20382;-77
2023/05/07 00:47:10;;;;;;;77.97;37.33;;;;;;;11.53;100.00;101735.06;5137672;27;20385;-77
2023/05/07 00:49:39;;;;;;;78.13;39.42;;;;;;;11.55;100.00;101735.78;5137169;27;20027;-77
2023/05/07 00:52:06;;;;;;;75.95;37.08;;;;;;;11.56;100.00;101732.16;5137936;27;20031;-77
2023/05/07 00:54:33;;;;;;;72.30;36.60;;;;;;;11.59;100.00;101731.91;5138100;27;20379;-77
2023/05/07 00:56:58;;;;;;;71.35;36.15;;;;;;;11.61;100.00;101729.09;5137233;27;20027;-77
2023/05/07 00:59:24;;;;;;;66.60;35.25;;;;;;;11.61;100.00;101737.97;5137536;27;20035;-79
2023/05/07 01:01:49;;;;;;;71.68;34.60;;;;;;;11.61;100.00;101721.97;5137261;27;20039;-78
2023/05/07 01:04:15;;;;;;;70.50;36.60;;;;;;;11.61;100.00;101732.63;5137201;27;20019;-77
2023/05/07 01:06:41;;;;;;;78.68;37.85;;;;;;;11.62;100.00;101725.47;5136954;27;20060;-77
2023/05/07 01:09:07;;;;;;;70.45;35.75;;;;;;;11.62;100.00;101717.47;5119635;27;20038;-77
2023/05/07 01:11:32;;;;;;;72.68;36.40;;;;;;;11.62;100.00;101715.66;5137590;27;20062;-77
2023/05/07 01:13:59;;;;;;;65.38;35.65;;;;;;;11.63;100.00;101716.53;5137210;27;20076;-77
2023/05/07 01:16:25;;;;;;;66.93;34.40;;;;;;;11.61;100.00;101715.78;5137021;27;20106;-77
2023/05/07 01:18:50;;;;;;;64.38;34.47;;;;;;;11.60;100.00;101714.09;5136662;27;20118;-77
2023/05/07 01:21:18;;;;;;;66.65;34.95;;;;;;;11.52;100.00;101716.53;5137512;27;20043;-77
2023/05/07 01:23:45;;;;;;;62.38;32.53;;;;;;;11.44;100.00;101714.47;5136972;27;20451;-78
2023/05/07 01:26:10;;;;;;;61.00;33.00;;;;;;;11.37;100.00;101714.13;5136987;27;20035;-77
2023/05/07 01:28:35;;;;;;;62.45;34.08;;;;;;;11.28;100.00;101707.69;5138141;27;20038;-78
2023/05/07 01:31:03;;;;;;;80.47;34.78;;;;;;;11.21;100.00;101708.31;5136593;27;20031;-77
2023/05/07 01:33:32;;;;;;;66.88;33.65;;;;;;;11.13;100.00;101708.09;5137173;27;20058;-78
2023/05/07 01:36:00;;;;;;;63.95;34.22;;;;;;;11.06;100.00;101707.72;5135372;27;20023;-77
2023/05/07 01:38:27;;;;;;;66.05;34.25;;;;;;;10.98;100.00;101710.97;5137084;27;20470;-78
2023/05/07 01:40:53;;;;;;;64.85;34.30;;;;;;;10.91;100.00;101707.97;5136601;27;20066;-77
2023/05/07 01:43:19;;;;;;;72.22;35.05;;;;;;;10.87;100.00;101706.50;5136888;27;20392;-77
2023/05/07 01:45:45;;;;;;;76.30;38.22;;;;;;;10.89;100.00;101714.38;5136353;27;20036;-77
2023/05/07 01:48:11;;;;;;;77.97;37.92;;;;;;;10.94;100.00;101710.38;5136945;27;20103;-77
2023/05/07 01:50:37;;;;;;;77.53;36.45;;;;;;;10.99;100.00;101710.03;5136258;27;20027;-77
2023/05/07 01:53:02;;;;;;;81.63;38.78;;;;;;;11.06;100.00;101705.03;5134782;27;20038;-76
2023/05/07 01:55:28;;;;;;;82.63;40.60;;;;;;;11.10;100.00;101703.84;5136632;27;20184;-78
2023/05/07 01:57:53;;;;;;;90.05;41.00;;;;;;;11.14;100.00;101707.97;5134701;27;20463;-77
2023/05/07 02:00:19;;;;;;;89.57;40.35;;;;;;;11.17;100.00;101713.06;5136679;27;20126;-77
2023/05/07 02:02:44;;;;;;;82.82;38.80;;;;;;;11.20;100.00;101715.47;5136383;27;20062;-78
2023/05/07 02:05:10;;;;;;;77.22;37.78;;;;;;;11.21;100.00;101714.50;5136061;27;20031;-77
2023/05/07 02:07:35;;;;;;;80.65;38.28;;;;;;;11.26;100.00;101724.81;5135122;27;20515;-77
2023/05/07 02:10:01;;;;;;;76.80;37.65;;;;;;;11.28;100.00;101720.19;5136173;27;20031;-77
2023/05/07 02:12:26;;;;;;;75.38;37.45;;;;;;;11.33;100.00;101717.16;5135879;27;20023;-78
2023/05/07 02:14:51;;;;;;;76.15;37.15;;;;;;;11.35;100.00;101715.22;5135619;27;20471;-77
2023/05/07 02:17:17;;;;;;;76.20;38.25;;;;;;;11.36;100.00;101711.56;5138176;27;20048;-77
2023/05/07 02:19:42;;;;;;;88.18;40.17;;;;;;;11.39;100.00;101717.53;5138133;27;20152;-78
2023/05/07 02:22:07;;;;;;;83.45;38.42;;;;;;;11.41;100.00;101709.41;5138465;27;20084;-76
2023/05/07 02:24:33;;;;;;;80.30;39.13;;;;;;;11.42;100.00;101719.06;5137502;27;20027;-77
2023/05/07 02:26:58;;;;;;;85.13;38.25;;;;;;;11.42;100.00;101709.28;5135470;27;20546;-77
2023/05/07 02:29:23;;;;;;;82.00;37.95;;;;;;;11.45;100.00;101716.19;5136469;27;20494;-77
2023/05/07 02:31:50;;;;;;;78.32;38.75;;;;;;;11.46;100.00;101718.72;5134626;27;20035;-78
2023/05/07 02:34:16;;;;;;;88.30;38.88;;;;;;;11.49;100.00;101716.78;5135443;27;20031;-78
2023/05/07 02:36:42;;;;;;;80.55;36.92;;;;;;;11.47;100.00;101719.56;5135079;27;20053;-78
2023/05/07 02:39:08;;;;;;;73.60;36.03;;;;;;;11.47;100.00;101716.91;5134053;27;20043;-77
2023/05/07 02:41:33;;;;;;;74.35;36.50;;;;;;;11.46;100.00;101717.84;5135348;27;20070;-77
2023/05/07 02:43:59;;;;;;;77.18;38.22;;;;;;;11.46;100.00;101723.19;5135843;27;20034;-77
2023/05/07 02:46:24;;;;;;;75.70;37.83;;;;;;;11.46;100.00;101718.72;5134808;27;20359;-77
2023/05/07 02:48:49;;;;;;;86.00;39.13;;;;;;;11.46;100.00;101726.72;5134734;27;20083;-77
2023/05/07 02:51:15;;;;;;;76.15;37.22;;;;;;;11.49;100.00;101720.28;5134724;27;20030;-78
2023/05/07 02:53:40;;;;;;;79.65;37.38;;;;;;;11.52;100.00;101724.53;5134466;27;20039;-78
2023/05/07 02:56:06;;;;;;;75.60;37.33;;;;;;;11.52;100.00;101722.69;5135001;27;20038;-78
2023/05/07 02:58:31;;;;;;;74.35;36.58;;;;;;;11.52;100.00;101714.69;5135096;27;20027;-76
2023/05/07 03:00:57;;;;;;;81.28;37.08;;;;;;;11.55;100.00;101717.09;5134752;27;20443;-78
2023/05/07 03:03:22;;;;;;;77.38;36.15;;;;;;;11.58;100.00;101724.03;5134703;27;20057;-78
2023/05/07 03:05:48;;;;;;;71.75;36.28;;;;;;;11.58;100.00;101724.84;5134894;27;20075;-78
2023/05/07 03:08:13;;;;;;;73.43;34.55;;;;;;;11.62;100.00;101722.81;5134431;27;20031;-78
2023/05/07 03:10:39;;;;;;;65.40;33.95;;;;;;;11.62;100.00;101723.66;5134277;27;20025;-78
2023/05/07 03:13:04;;;;;;;77.70;36.88;;;;;;;11.63;100.00;101722.69;5135276;27;20030;-78
2023/05/07 03:15:30;;;;;;;71.10;34.67;;;;;;;11.64;100.00;101721.72;5134711;27;20058;-78
2023/05/07 03:17:55;;;;;;;68.53;33.30;;;;;;;11.64;100.00;101716.41;5134539;27;20072;-77
2023/05/07 03:20:21;;;;;;;71.82;34.03;;;;;;;11.65;100.00;101714.56;5134837;27;20034;-78
2023/05/07 03:22:46;;;;;;;69.53;34.15;;;;;;;11.67;100.00;101714.44;5135202;27;20031;-78
2023/05/07 03:25:12;;;;;;;70.22;35.00;;;;;;;11.68;100.00;101713.47;5133564;27;20052;-78
2023/05/07 03:27:38;;;;;;;69.00;34.92;;;;;;;11.69;100.00;101712.47;5134726;27;20052;-78
2023/05/07 03:30:04;;;;;;;70.40;34.05;;;;;;;11.71;100.00;101713.22;5134461;27;20113;-78
2023/05/07 03:32:29;;;;;;;69.60;33.83;;;;;;;11.71;100.00;101715.88;5134036;27;20031;-77
2023/05/07 03:34:55;;;;;;;60.45;32.10;;;;;;;11.69;100.00;101705.34;5134284;27;20099;-77
2023/05/07 03:37:21;;;;;;;63.53;32.15;;;;;;;11.70;100.00;101707.03;5134683;27;20539;-77
2023/05/07 03:39:47;;;;;;;64.20;32.80;;;;;;;11.70;100.00;101708.84;5134174;27;20035;-77
2023/05/07 03:42:12;;;;;;;66.25;33.63;;;;;;;11.69;100.00;101705.34;5133539;27;20034;-77
2023/05/07 03:44:37;;;;;;;59.95;31.75;;;;;;;11.68;100.00;101705.47;5134139;27;20106;-78
2023/05/07 03:47:04;;;;;;;62.53;32.40;;;;;;;11.66;100.00;101713.59;5134546;27;20094;-77
2023/05/07 03:49:29;;;;;;;57.63;31.30;;;;;;;11.63;100.00;101713.84;5134359;27;20039;-78
2023/05/07 03:51:55;;;;;;;60.15;31.00;;;;;;;11.60;100.00;101708.78;5134220;28;20031;-78
2023/05/07 03:54:21;;;;;;;58.28;31.85;;;;;;;11.59;100.00;101721.22;5132623;28;20059;-78
2023/05/07 03:56:46;;;;;;;64.82;32.25;;;;;;;11.59;100.00;101718.56;5134201;27;20031;-78
2023/05/07 03:59:12;;;;;;;58.00;32.13;;;;;;;11.60;100.00;101716.78;5136220;27;20035;-78
2023/05/07 04:01:38;;;;;;;56.00;33.17;;;;;;;11.63;100.00;101727.19;5138649;27;20049;-78
2023/05/07 04:04:04;;;;;;;62.35;32.90;;;;;;;11.64;100.00;101720.84;5138315;27;20550;-78
2023/05/07 04:06:29;;;;;;;68.45;34.55;;;;;;;11.67;100.00;101727.75;5138349;27;20027;-78
2023/05/07 04:08:54;;;;;;;59.22;32.20;;;;;;;11.65;100.00;101731.38;5138135;27;20039;-78
2023/05/07 04:11:20;;;;;;;63.00;34.28;;;;;;;11.68;100.00;101740.13;5138087;27;20412;-79
2023/05/07 04:13:45;;;;;;;58.95;33.55;;;;;;;11.67;100.00;101731.25;5138074;27;20032;-78
2023/05/07 04:16:11;;;;;;;53.40;31.13;;;;;;;11.67;100.00;101731.25;5138145;27;20082;-78
2023/05/07 04:18:36;;;;;;;60.88;31.70;;;;;;;11.67;100.00;101741.94;5138391;27;20151;-77
2023/05/07 04:21:01;;;;;;;54.95;31.92;;;;;;;11.69;100.00;101736.47;5138518;27;20035;-77
2023/05/07 04:23:27;;;;;;;58.28;32.67;;;;;;;11.69;100.00;101731.13;5138006;27;20035;-77
2023/05/07 04:25:54;;;;;;;54.30;31.38;;;;;;;11.70;100.00;101731.00;5137866;27;20482;-78
2023/05/07 04:28:20;;;;;;;56.75;31.23;;;;;;;11.72;100.00;101731.75;5137140;27;20099;-77
2023/05/07 04:30:45;;;;;;;55.88;31.85;;;;;;;11.72;100.00;101730.88;5137784;27;20035;-78
2023/05/07 04:33:11;;;;;;;60.53;32.72;;;;;;;11.75;100.00;101731.50;5137870;27;20066;-78
2023/05/07 04:35:37;;;;;;;57.03;32.50;;;;;;;11.77;100.00;101728.72;5137790;27;20027;-77
2023/05/07 04:38:02;;;;;;;53.97;30.38;;;;;;;11.80;100.00;101736.47;5137604;27;20084;-77
2023/05/07 04:40:27;;;;;;;53.45;30.75;;;;;;;11.81;100.00;101738.16;5136343;27;20039;-77
2023/05/07 04:42:53;;;;;;;55.63;32.60;;;;;;;11.84;100.00;101745.91;5137781;27;20027;-78
2023/05/07 04:45:19;;;;;;;52.55;30.90;;;;;;;11.86;100.00;101741.28;5138128;27;20027;-77
2023/05/07 04:47:44;;;;;;;52.10;29.98;;;;;;;11.87;100.00;101747.47;5137777;27;20425;-77
2023/05/07 04:50:10;;;;;;;49.70;29.65;;;;;;;11.88;100.00;101747.34;5137374;27;20030;-77
2023/05/07 04:52:36;;;;;;;51.22;31.35;;;;;;;11.90;100.00;101742.75;5137633;27;20027;-77
2023/05/07 04:55:02;;;;;;;51.35;30.00;;;;;;;11.92;100.00;101742.59;5137715;27;20475;-77
2023/05/07 04:57:27;;;;;;;45.22;28.27;;;;;;;11.96;100.00;101739.59;5137008;27;20129;-78
2023/05/07 04:59:53;;;;;;;47.47;30.08;;;;;;;11.99;100.00;101741.16;5137211;27;20071;-77
2023/05/07 05:02:19;;;;;;;54.30;30.55;;;;;;;12.03;100.00;101749.75;5137828;27;20097;-77
2023/05/07 05:04:44;;;;;;;46.42;28.45;;;;;;;12.04;100.00;101741.63;5137186;27;20072;-77
2023/05/07 05:07:10;;;;;;;45.28;28.60;;;;;;;12.08;100.00;101750.25;5137101;27;20483;-77
2023/05/07 05:09:35;;;;;;;50.10;28.95;;;;;;;12.12;100.00;101757.84;5136623;27;20106;-77
2023/05/07 05:12:00;;;;;;;45.42;28.27;;;;;;;12.17;100.00;101754.81;5136987;27;20028;-77
2023/05/07 05:14:26;;;;;;;43.92;27.80;;;;;;;12.21;100.00;101755.38;5137248;27;20038;-77
2023/05/07 05:16:51;;;;;;;45.38;27.75;;;;;;;12.24;100.00;101760.47;5136921;27;20027;-77
2023/05/07 05:19:17;;;;;;;42.42;27.17;;;;;;;12.30;100.00;101759.94;5136937;27;20023;-77
2023/05/07 05:21:42;;;;;;;44.90;26.98;;;;;;;12.34;100.00;101750.72;5136607;27;20092;-76
2023/05/07 05:24:07;;;;;;;40.85;26.25;;;;;;;12.40;100.00;101757.38;5135527;27;20042;-76
2023/05/07 05:26:33;;;;;;;33.47;23.92;;;;;;;12.44;100.00;101758.81;5136848;27;20037;-76
2023/05/07 05:28:58;;;;;;;39.00;25.02;;;;;;;12.48;100.00;101760.22;5136663;27;20039;-77
2023/05/07 05:31:24;;;;;;;37.25;24.92;;;;;;;12.53;100.00;101761.53;5136360;27;20592;-77
2023/05/07 05:33:49;;;;;;;36.28;24.13;;;;;;;12.59;100.00;101770.03;5137094;27;20108;-77
2023/05/07 05:36:14;;;;;;;36.03;23.48;;;;;;;12.63;100.00;101766.97;5136475;27;20027;-77
2023/05/07 05:38:40;;;;;;;34.25;22.75;;;;;;;12.70;100.00;101768.16;5136479;27;20030;-77
2023/05/07 05:41:05;;;;;;;33.10;22.85;;;;;;;12.77;100.00;101772.97;5136400;27;20120;-77
2023/05/07 05:43:31;;;;;;;34.42;23.10;;;;;;;12.84;100.00;101776.81;5136656;27;20035;-77
2023/05/07 05:45:57;;;;;;;29.70;21.23;;;;;;;12.91;100.00;101777.94;5136299;27;20076;-77
2023/05/07 05:48:23;;;;;;;28.30;21.55;;;;;;;12.98;100.00;101776.44;5136219;27;20504;-77
2023/05/07 05:50:49;;;;;;;28.23;20.80;;;;;;;13.05;100.00;101771.44;5136730;27;20114;-77
2023/05/07 05:53:15;;;;;;;30.48;20.88;;;;;;;13.15;100.00;101775.00;5136226;27;20092;-77
2023/05/07 05:55:41;;;;;;;32.17;20.67;;;;;;;13.22;100.00;101773.47;5136466;27;20055;-77
2023/05/07 05:58:07;;;;;;;29.80;19.67;;;;;;;13.33;100.00;101774.38;5136561;27;20073;-77
2023/05/07 06:00:32;;;;;;;25.90;19.02;;;;;;;13.43;100.00;101775.28;5136079;27;20035;-77
2023/05/07 06:02:57;;;;;;;26.70;18.95;;;;;;;13.55;100.00;101779.56;5136477;27;20356;-77
2023/05/07 06:05:23;;;;;;;22.67;17.55;;;;;;;13.67;100.00;101780.28;5136502;27;20473;-77
2023/05/07 06:07:48;;;;;;;27.05;17.23;;;;;;;13.80;100.00;101782.72;5136039;27;20027;-77
2023/05/07 06:10:14;;;;;;;21.75;16.48;;;;;;;13.90;100.00;101782.75;5118077;27;20503;-77
2023/05/07 06:12:39;;;;;;;18.90;15.60;;;;;;;14.03;100.00;101771.78;5134332;27;20034;-77
2023/05/07 06:15:05;;;;;;;20.80;16.00;;;;;;;14.16;100.00;101776.88;5135389;27;20110;-76
2023/05/07 06:17:31;;;;;;;21.42;15.50;;;;;;;14.31;100.00;101778.13;5135318;27;20364;-76
2023/05/07 06:19:56;;;;;;;24.92;14.95;;;;;;;14.47;100.00;101774.91;5117304;27;20034;-75
2023/05/07 06:22:21;;;;;;;19.17;13.95;;;;;;;14.53;100.00;101774.31;5134904;27;20106;-76
2023/05/07 06:24:47;;;;;;;19.55;15.32;;;;;;;14.59;100.00;101781.78;5135894;27;20031;-76
2023/05/07 06:27:12;;;;;;;20.30;15.57;;;;;;;14.66;100.00;101781.25;5134223;27;20031;-76
2023/05/07 06:29:37;;;;;;;22.08;14.65;;;;;;;14.55;100.00;101779.53;5136056;27;20039;-76
2023/05/07 06:32:10;;;;;;;20.33;15.05;;;;;;;14.50;100.00;101771.94;5135351;27;20527;-76
2023/05/07 06:34:36;;;;;;;20.50;14.43;;;;;;;14.38;100.00;101781.94;5135506;27;20031;-77
2023/05/07 06:37:02;;;;;;;19.02;14.88;;;;;;;14.31;100.00;101779.97;5136153;27;20030;-77
2023/05/07 06:39:27;;;;;;;23.02;15.65;;;;;;;14.29;100.00;101778.28;5134032;27;20050;-76
2023/05/07 06:41:53;;;;;;;25.58;17.63;;;;;;;14.44;100.00;101773.34;5135017;27;20066;-76
2023/05/07 06:44:18;;;;;;;20.30;15.73;;;;;;;14.55;100.00;101777.69;5135024;27;20023;-76
2023/05/07 06:46:44;;;;;;;20.60;16.20;;;;;;;14.71;100.00;101779.81;5134252;27;20360;-77
2023/05/07 06:49:10;;;;;;;18.27;15.65;;;;;;;14.81;100.00;101774.47;5135840;27;20035;-77
2023/05/07 06:51:35;;;;;;;20.48;15.20;;;;;;;14.91;100.00;101769.94;5135094;27;20031;-77
2023/05/07 06:54:01;;;;;;;20.48;15.30;;;;;;;15.02;100.00;101782.31;5134844;27;20406;-77
2023/05/07 06:56:26;;;;;;;15.35;13.73;;;;;;;15.20;100.00;101777.03;5134840;27;20035;-76
2023/05/07 06:58:52;;;;;;;17.80;14.07;;;;;;;15.33;100.00;101774.00;5135303;27;20031;-76
2023/05/07 07:01:17;;;;;;;21.00;15.05;;;;;;;15.47;100.00;101773.53;5133616;27;20057;-77
2023/05/07 07:03:42;;;;;;;17.25;13.82;;;;;;;15.55;100.00;101775.44;5134916;27;20059;-76
2023/05/07 07:06:08;;;;;;;20.15;13.75;;;;;;;15.72;100.00;101784.56;5134054;27;20065;-77
2023/05/07 07:08:34;;;;;;;18.17;13.35;;;;;;;15.84;100.00;101774.50;5134775;27;20481;-77
2023/05/07 07:10:59;;;;;;;18.42;14.30;;;;;;;15.92;100.00;101774.56;5133456;27;20027;-77
2023/05/07 07:13:25;;;;;;;15.73;13.80;;;;;;;16.00;100.00;101773.81;5134679;27;20023;-78
2023/05/07 07:15:51;;;;;;;20.40;13.55;;;;;;;15.95;100.00;101768.06;5134453;27;20418;-76
2023/05/07 07:18:17;;;;;;;20.50;13.52;;;;;;;16.04;100.00;101772.50;5134522;27;20083;-76
2023/05/07 07:20:44;;;;;;;16.20;12.13;;;;;;;16.24;100.00;101780.41;5134675;27;20404;-77
2023/05/07 07:23:09;;;;;;;17.58;13.10;;;;;;;16.37;100.00;101778.19;5133376;27;20027;-79
2023/05/07 07:25:35;;;;;;;15.57;11.27;;;;;;;16.42;100.00;101773.22;5134813;27;20053;-76
2023/05/07 07:28:00;;;;;;;15.23;11.35;;;;;;;16.65;100.00;101778.09;5132895;27;20032;-76
2023/05/07 07:30:26;;;;;;;20.02;12.73;;;;;;;16.81;100.00;101774.66;5134304;27;20027;-76
2023/05/07 07:32:52;;;;;;;15.32;11.65;;;;;;;16.96;100.00;101774.97;5134148;27;20085;-77
2023/05/07 07:35:17;;;;;;;15.45;11.65;;;;;;;17.05;100.00;101774.03;5134327;27;20035;-77
2023/05/07 07:37:43;;;;;;;16.88;11.90;;;;;;;16.91;100.00;101776.31;5134457;27;20481;-77
2023/05/07 07:40:09;;;;;;;15.60;11.27;;;;;;;16.74;100.00;101772.59;5134367;27;20117;-78
2023/05/07 07:42:34;;;;;;;15.70;12.00;;;;;;;16.71;100.00;101782.84;5134972;27;20118;-76
2023/05/07 07:45:00;;;;;;;15.52;12.23;;;;;;;16.55;100.00;101770.13;5134324;27;20155;-77
2023/05/07 07:47:25;;;;;;;15.10;12.00;;;;;;;16.54;100.00;101773.78;5133027;28;20069;-78
2023/05/07 07:49:51;;;;;;;18.15;11.95;;;;;;;16.39;100.00;101781.56;5134369;27;20035;-79
2023/05/07 07:52:16;;;;;;;14.73;12.43;;;;;;;16.23;100.00;101779.59;5132938;28;20066;-75
2023/05/07 07:54:42;;;;;;;18.42;11.70;;;;;;;16.34;100.00;101781.19;5133782;28;20055;-78
2023/05/07 07:57:08;;;;;;;15.68;12.20;;;;;;;16.49;100.00;101776.94;5133924;27;20052;-78
2023/05/07 07:59:33;;;;;;;17.70;11.43;;;;;;;16.60;100.00;101775.00;5134680;28;20473;-81
2023/05/07 08:01:58;;;;;;;15.35;11.88;;;;;;;16.83;100.00;101786.94;5133756;28;20490;-83
2023/05/07 08:04:24;;;;;;;17.40;11.52;;;;;;;17.10;100.00;101779.75;5134096;28;20467;-76
2023/05/07 08:06:49;;;;;;;13.30;10.90;;;;;;;17.48;100.00;101779.44;5133290;28;20027;-81
2023/05/07 08:09:15;;;;;;;13.50;10.52;;;;;;;17.92;100.00;101782.81;5133742;27;20027;-81
2023/05/07 08:11:40;;;;;;;13.00;10.20;;;;;;;18.28;100.00;101787.91;5133817;28;20038;-81
2023/05/07 08:14:06;;;;;;;17.02;10.63;;;;;;;18.31;100.00;101784.06;5132635;28;20118;-79
2023/05/07 08:16:31;;;;;;;13.85;10.50;;;;;;;18.31;100.00;101784.88;5133704;27;20028;-81
2023/05/07 08:18:56;;;;;;;11.75;9.77;;;;;;;18.17;100.00;101785.56;5115357;28;20371;-74
2023/05/07 08:21:22;;;;;;;14.38;10.43;;;;;;;18.03;100.00;101792.41;5133600;27;20050;-72
2023/05/07 08:23:48;;;;;;;13.65;10.32;;;;;;;18.02;100.00;101797.97;5133592;27;20031;-72
2023/05/07 08:26:13;;;;;;;11.77;10.13;;;;;;;18.01;100.00;101797.13;5133258;27;20028;-73
2023/05/07 08:28:39;;;;;;;13.07;10.02;;;;;;;18.11;100.00;101799.69;5133383;28;20084;-73
2023/05/07 08:31:05;;;;;;;15.20;10.60;;;;;;;18.27;100.00;101809.63;5134071;28;20038;-74
2023/05/07 08:33:31;;;;;;;18.08;10.20;;;;;;;18.44;100.00;101808.66;5133391;27;20039;-74
2023/05/07 08:35:56;;;;;;;11.73;9.68;;;;;;;18.58;100.00;101804.44;5133155;27;20023;-73
2023/05/07 08:38:21;;;;;;;12.20;9.00;;;;;;;18.78;100.00;101804.09;5133467;27;20030;-74
2023/05/07 08:40:47;;;;;;;12.25;8.85;;;;;;;18.91;100.00;101809.00;5133233;28;20031;-74
2023/05/07 08:43:14;;;;;;;13.45;9.55;;;;;;;18.96;100.00;101810.19;5133369;27;20031;-74
2023/05/07 08:45:40;;;;;;;13.68;9.13;;;;;;;19.01;100.00;101798.88;5137024;27;20034;-72
2023/05/07 08:48:14;;;;;;;12.60;8.38;;;;;;;18.99;100.00;101811.69;5137135;27;20161;-72
2023/05/07 08:50:39;;;;;;;10.38;8.25;;;;;;;18.95;100.00;101810.34;5136918;27;20027;-73
2023/05/07 08:53:05;;;;;;;10.60;7.80;;;;;;;18.85;100.00;101805.09;5137026;27;20023;-74
2023/05/07 08:55:30;;;;;;;13.35;8.25;;;;;;;18.88;100.00;101815.56;5137063;27;20096;-74
2023/05/07 08:57:56;;;;;;;12.65;9.02;;;;;;;19.05;100.00;101807.44;5137637;27;20137;-73
2023/05/07 09:00:21;;;;;;;14.18;8.57;;;;;;;19.19;100.00;101802.19;5136849;27;20118;-74
2023/05/07 09:02:47;;;;;;;11.18;8.32;;;;;;;19.24;100.00;101804.38;5136561;27;20474;-78
2023/05/07 09:05:12;;;;;;;13.32;8.73;;;;;;;19.32;100.00;101807.06;5136852;27;20080;-76
2023/05/07 09:07:38;;;;;;;13.40;7.47;;;;;;;19.50;100.00;101811.38;5137228;27;20033;-75
2023/05/07 09:10:05;;;;;;;9.02;6.20;;;;;;;19.58;100.00;101810.50;5137134;27;20027;-79
2023/05/07 09:12:30;;;;;;;10.10;6.07;;;;;;;19.68;100.00;101820.06;5136331;27;20531;-76
2023/05/07 09:14:56;;;;;;;10.05;5.90;;;;;;;19.86;100.00;101800.94;5136992;27;20063;-78
2023/05/07 09:17:21;;;;;;;13.32;5.85;;;;;;;20.20;100.00;101809.72;5137282;27;20038;-77
2023/05/07 09:19:47;;;;;;;8.93;5.55;;;;;;;20.55;100.00;101812.81;5137320;27;20087;-78
2023/05/07 09:22:13;;;;;;;7.97;5.38;;;;;;;20.77;100.00;101806.56;5136822;27;20080;-76
2023/05/07 09:24:38;;;;;;;10.60;5.90;;;;;;;21.05;100.00;101813.22;5137205;27;20026;-80
2023/05/07 09:27:05;;;;;;;10.18;5.93;;;;;;;21.26;100.00;101820.63;5136454;27;20355;-79
2023/05/07 09:29:35;;;;;;;9.45;5.80;;;;;;;21.57;100.00;101814.19;5136663;27;20042;-79
2023/05/07 09:32:05;;;;;;;7.93;6.10;;;;;;;22.04;100.00;101815.59;5136236;27;20038;-78
2023/05/07 09:34:31;;;;;;;10.68;6.32;;;;;;;22.29;100.00;101820.66;5136255;27;20031;-76
2023/05/07 09:37:00;;;;;;;9.27;5.32;;;;;;;22.30;100.00;101816.88;5136502;27;20106;-78
2023/05/07 09:39:26;;;;;;;11.90;4.80;;;;;;;22.59;100.00;101807.00;5136857;27;20118;-80
2023/05/07 09:41:54;;;;;;;9.40;4.60;;;;;;;22.67;100.00;101812.25;5136184;27;20031;-78
2023/05/07 09:44:21;;;;;;;9.82;5.18;;;;;;;22.72;100.00;101817.91;5136849;27;20027;-81
2023/05/07 09:46:53;;;;;;;10.43;4.70;;;;;;;22.78;100.00;101817.16;5135870;27;20309;-78
2023/05/07 09:49:23;;;;;;;9.23;5.38;;;;;;;22.59;100.00;101815.94;5136899;27;20034;-81
2023/05/07 09:51:51;;;;;;;11.38;5.85;;;;;;;21.99;100.00;101818.88;5136120;27;20046;-78
2023/05/07 09:54:18;;;;;;;8.38;5.30;;;;;;;21.75;100.00;101825.47;5136015;27;20051;-79
2023/05/07 09:56:44;;;;;;;10.82;6.20;;;;;;;21.49;100.00;101834.03;5136620;27;20443;-78
2023/05/07 09:59:13;;;;;;;11.27;5.80;;;;;;;21.43;100.00;101835.63;5136354;27;20039;-78
2023/05/07 10:01:40;;;;;;;11.10;5.88;;;;;;;21.11;100.00;101829.56;5135596;27;20066;-78
2023/05/07 10:04:08;;;;;;;8.85;5.85;;;;;;;20.92;100.00;101825.50;5135939;27;20043;-77
2023/05/07 10:06:34;;;;;;;11.02;6.60;;;;;;;20.98;100.00;101821.25;5135895;27;20083;-78
2023/05/07 10:09:00;;;;;;;11.32;6.50;;;;;;;21.19;100.00;101827.81;5135878;27;20031;-81
2023/05/07 10:11:26;;;;;;;11.82;6.40;;;;;;;21.35;100.00;101832.16;5135811;27;20033;-79
2023/05/07 10:13:52;;;;;;;12.65;6.68;;;;;;;21.45;100.00;101828.19;5135682;27;20035;-81
2023/05/07 10:16:18;;;;;;;11.48;6.80;;;;;;;21.82;100.00;101829.06;5135778;27;20050;-79
2023/05/07 10:18:45;;;;;;;12.68;6.50;;;;;;;21.89;100.00;101826.47;5135701;27;20463;-79
2023/05/07 10:21:22;;;;;;;11.68;6.53;;;;;;;22.26;100.00;101826.44;5134356;27;20027;-82
2023/05/07 10:24:03;;;;;;;11.15;6.72;;;;;;;22.57;100.00;101828.03;5135548;27;20031;-80
2023/05/07 10:26:31;;;;;;;11.27;6.75;;;;;;;23.03;100.00;101831.09;5135902;27;20023;-79
2023/05/07 10:29:03;;;;;;;10.70;6.72;;;;;;;23.30;100.00;101825.03;5135382;27;20035;-80
2023/05/07 10:31:43;;;;;;;12.95;6.85;;;;;;;23.51;100.00;101816.81;5135844;27;20477;-81
2023/05/07 10:34:13;;;;;;;11.65;6.20;;;;;;;23.70;99.18;101817.91;5135575;27;20035;-82
2023/05/07 10:36:39;;;;;;;10.88;6.53;;;;;;;23.51;97.60;101816.81;5135583;27;20360;-79
2023/05/07 10:39:06;;;;;;;12.00;6.03;;;;;;;23.58;100.00;101824.97;5135335;27;20027;-81
2023/05/07 10:41:31;;;;;;;9.32;5.82;;;;;;;23.57;96.73;101821.44;5134249;27;20463;-81
2023/05/07 10:44:01;;;;;;;10.07;6.47;;;;;;;23.40;91.20;101825.53;5134918;27;20160;-83
2023/05/07 10:46:26;;;;;;;10.88;6.18;;;;;;;23.24;96.88;101829.38;5133377;27;20031;-81
2023/05/07 10:49:12;;;;;;;11.55;6.85;;;;;;;22.92;100.00;101837.09;5134673;27;20038;-85
2023/05/07 10:51:38;;;;;;;13.60;7.28;;;;;;;22.74;100.00;101839.44;5133858;27;20043;-81
2023/05/07 10:54:11;;;;;;;12.68;7.63;;;;;;;22.71;100.00;101837.97;5134280;27;20047;-82
2023/05/07 10:56:42;;;;;;;14.15;7.80;;;;;;;22.24;100.00;101840.19;5135309;27;20047;-81
2023/05/07 10:59:20;;;;;;;13.52;7.72;;;;;;;22.08;100.00;101835.84;5134344;27;20085;-83